createdAt,value
2018-12-19T00:01:23.286Z,5.50
2018-12-19T00:03:51.142Z,2.30
2018-12-19T00:06:18.959Z,3.63
2018-12-19T00:08:46.816Z,7.50
2018-12-19T00:11:14.609Z,7.33
2018-12-19T00:13:42.732Z,7.60
2018-12-19T00:16:10.553Z,7.17
2018-12-19T00:18:38.494Z,3.40
2018-12-19T00:21:07.400Z,5.33
2018-12-19T00:23:36.550Z,4.57
2018-12-19T00:26:04.460Z,3.23
2018-12-19T00:28:32.391Z,4.83
2018-12-19T00:31:00.193Z,4.60
2018-12-19T00:33:28.004Z,5.43
2018-12-19T00:35:55.789Z,4.10
2018-12-19T00:38:23.695Z,4.97
2018-12-19T00:40:51.465Z,5.80
2018-12-19T00:43:19.281Z,4.23
2018-12-19T00:45:47.120Z,5.50
2018-12-19T00:48:15.018Z,5.63
2018-12-19T00:50:42.877Z,4.70
2018-12-19T00:53:10.673Z,5.27
2018-12-19T00:55:38.534Z,3.73
2018-12-19T00:58:06.302Z,5.17
2018-12-19T01:00:34.236Z,5.47
2018-12-19T01:03:02.035Z,5.57
2018-12-19T01:05:29.895Z,5.57
2018-12-19T01:07:57.705Z,4.87
2018-12-19T01:10:25.625Z,4.07
2018-12-19T01:12:53.426Z,5.37
2018-12-19T01:15:21.371Z,3.67
2018-12-19T01:17:49.197Z,5.10
2018-12-19T01:20:17.137Z,5.70
2018-12-19T01:22:44.908Z,8.10
2018-12-19T01:25:12.838Z,4.33
2018-12-19T01:27:40.601Z,5.97
2018-12-19T01:30:08.477Z,9.53
2018-12-19T01:32:36.320Z,7.33
2018-12-19T01:35:04.206Z,6.60
2018-12-19T01:37:31.981Z,5.93
2018-12-19T01:40:01.591Z,7.10
2018-12-19T01:42:29.521Z,5.77
2018-12-19T01:44:57.378Z,8.07
2018-12-19T01:47:25.186Z,6.50
2018-12-19T01:49:53.021Z,6.50
2018-12-19T01:52:20.817Z,7.87
2018-12-19T01:54:48.767Z,7.57
2018-12-19T01:57:16.547Z,6.77
2018-12-19T01:59:44.386Z,8.10
2018-12-19T02:02:12.780Z,8.77
2018-12-19T02:04:40.583Z,5.67
2018-12-19T02:07:08.697Z,9.93
2018-12-19T02:09:36.530Z,5.90
2018-12-19T02:12:04.397Z,7.47
2018-12-19T02:14:32.175Z,6.63
2018-12-19T02:17:00.030Z,6.80
2018-12-19T02:19:27.803Z,7.97
2018-12-19T02:21:55.636Z,5.40
2018-12-19T02:24:23.402Z,6.03
2018-12-19T02:26:51.280Z,8.03
2018-12-19T02:29:19.089Z,9.93
2018-12-19T02:31:47.126Z,7.83
2018-12-19T02:34:15.621Z,5.50
2018-12-19T02:36:43.446Z,5.50
2018-12-19T02:39:11.304Z,6.37
2018-12-19T02:41:39.138Z,7.07
2018-12-19T02:44:07.034Z,6.30
2018-12-19T02:46:34.858Z,8.93
2018-12-19T02:49:02.664Z,7.40
2018-12-19T02:51:30.456Z,7.20
2018-12-19T02:53:58.348Z,6.70
2018-12-19T02:56:26.132Z,7.83
2018-12-19T02:58:53.992Z,8.37
2018-12-19T03:01:21.793Z,8.17
2018-12-19T03:03:49.589Z,10.03
2018-12-19T03:06:17.404Z,8.73
2018-12-19T03:08:45.245Z,9.27
2018-12-19T03:11:13.135Z,11.47
2018-12-19T03:13:42.325Z,12.97
2018-12-19T03:16:10.121Z,10.60
2018-12-19T03:18:37.958Z,11.17
2018-12-19T03:21:05.765Z,14.93
2018-12-19T03:23:35.797Z,15.33
2018-12-19T03:26:03.662Z,16.23
2018-12-19T03:28:31.833Z,19.17
2018-12-19T03:30:59.773Z,18.57
2018-12-19T03:33:29.068Z,15.73
2018-12-19T03:35:56.962Z,21.13
2018-12-19T03:38:29.127Z,21.00
2018-12-19T03:40:56.937Z,21.80
2018-12-19T03:43:29.940Z,19.63
2018-12-19T03:45:57.832Z,21.37
2018-12-19T03:48:32.355Z,23.77
2018-12-19T03:51:02.797Z,28.23
2018-12-19T03:53:30.674Z,26.47
2018-12-19T03:55:59.740Z,28.73
2018-12-19T03:58:27.824Z,30.03
2018-12-19T04:00:59.756Z,29.30
2018-12-19T04:03:27.663Z,31.83
2018-12-19T04:05:55.698Z,32.40
2018-12-19T04:08:23.507Z,33.47
2018-12-19T04:10:55.955Z,32.13
2018-12-19T04:13:23.810Z,32.67
2018-12-19T04:15:56.000Z,30.83
2018-12-19T04:18:23.869Z,29.90
2018-12-19T04:20:52.961Z,24.90
2018-12-19T04:23:20.812Z,27.50
2018-12-19T04:25:48.871Z,25.17
2018-12-19T04:28:16.667Z,27.07
2018-12-19T04:30:49.706Z,22.90
2018-12-19T04:33:17.802Z,21.63
2018-12-19T04:35:52.280Z,20.33
2018-12-19T04:38:20.500Z,19.57
2018-12-19T04:40:52.679Z,17.93
2018-12-19T04:43:20.499Z,16.57
2018-12-19T04:45:49.407Z,19.00
2018-12-19T04:48:18.656Z,16.73
2018-12-19T04:50:46.636Z,17.20
2018-12-19T04:53:14.707Z,16.77
2018-12-19T04:55:42.818Z,18.80
2018-12-19T04:58:10.607Z,19.10
2018-12-19T05:00:38.438Z,19.33
2018-12-19T05:03:06.218Z,23.37
2018-12-19T05:05:35.366Z,16.03
2018-12-19T05:08:03.422Z,18.30
2018-12-19T05:10:31.526Z,17.70
2018-12-19T05:12:59.322Z,21.17
2018-12-19T05:15:27.181Z,23.00
2018-12-19T05:17:55.071Z,17.20
2018-12-19T05:20:22.914Z,20.40
2018-12-19T05:22:50.697Z,20.27
2018-12-19T05:25:18.538Z,18.17
2018-12-19T05:27:46.352Z,19.50
2018-12-19T05:30:14.181Z,16.37
2018-12-19T05:32:41.999Z,21.07
2018-12-19T05:35:09.907Z,20.53
2018-12-19T05:37:37.716Z,15.37
2018-12-19T05:40:06.718Z,15.57
2018-12-19T05:42:34.531Z,13.90
2018-12-19T05:45:02.384Z,16.30
2018-12-19T05:47:30.413Z,14.87
2018-12-19T05:49:58.332Z,13.97
2018-12-19T05:52:27.239Z,16.43
2018-12-19T05:54:55.223Z,15.77
2018-12-19T05:57:23.356Z,16.90
2018-12-19T05:59:51.250Z,17.47
2018-12-19T06:02:19.024Z,16.17
2018-12-19T06:04:47.911Z,13.03
2018-12-19T06:07:15.735Z,14.13
2018-12-19T06:09:43.595Z,13.10
2018-12-19T06:12:11.500Z,12.87
2018-12-19T06:14:39.304Z,14.20
2018-12-19T06:17:07.107Z,12.63
2018-12-19T06:19:34.899Z,12.67
2018-12-19T06:22:02.859Z,13.20
2018-12-19T06:24:30.657Z,14.53
2018-12-19T06:26:58.454Z,14.73
2018-12-19T06:29:26.371Z,13.90
2018-12-19T06:31:54.201Z,16.27
2018-12-19T06:34:22.029Z,15.53
2018-12-19T06:36:49.852Z,18.20
2018-12-19T06:39:17.656Z,15.67
2018-12-19T06:41:45.452Z,12.50
2018-12-19T06:44:13.238Z,13.80
2018-12-19T06:46:41.111Z,14.50
2018-12-19T06:49:09.763Z,15.87
2018-12-19T06:51:37.554Z,14.43
2018-12-19T06:54:05.423Z,18.13
2018-12-19T06:56:33.202Z,17.17
2018-12-19T06:59:01.033Z,14.87
2018-12-19T07:01:28.813Z,16.03
2018-12-19T07:03:56.683Z,12.27
2018-12-19T07:06:24.457Z,15.03
2018-12-19T07:08:52.626Z,18.40
2018-12-19T07:11:21.051Z,22.97
2018-12-19T07:13:48.941Z,18.77
2018-12-19T07:16:16.773Z,20.00
2018-12-19T07:18:44.594Z,19.00
2018-12-19T07:21:12.367Z,15.23
2018-12-19T07:23:40.209Z,15.87
2018-12-19T07:26:08.045Z,21.87
2018-12-19T07:28:35.918Z,15.80
2018-12-19T07:31:03.731Z,17.43
2018-12-19T07:33:31.585Z,9.27
2018-12-19T07:35:59.357Z,11.23
2018-12-19T07:38:27.230Z,11.47
2018-12-19T07:40:54.990Z,13.83
2018-12-19T07:43:22.820Z,11.63
2018-12-19T07:45:50.595Z,8.23
2018-12-19T07:48:18.655Z,10.20
2018-12-19T07:50:46.457Z,12.77
2018-12-19T07:53:14.338Z,13.60
2018-12-19T07:55:42.360Z,13.33
2018-12-19T07:58:10.375Z,12.27
2018-12-19T08:00:38.205Z,12.20
2018-12-19T08:03:06.071Z,9.67
2018-12-19T08:05:33.834Z,10.97
2018-12-19T08:08:01.700Z,9.87
2018-12-19T08:10:29.609Z,11.03
2018-12-19T08:12:57.461Z,18.13
2018-12-19T08:15:25.235Z,15.57
2018-12-19T08:17:53.190Z,12.27
2018-12-19T08:20:20.995Z,10.80
2018-12-19T08:22:48.884Z,9.43
2018-12-19T08:25:16.669Z,11.80
2018-12-19T08:27:44.530Z,10.40
2018-12-19T08:30:13.701Z,8.53
2018-12-19T08:32:41.618Z,7.67
2018-12-19T08:35:09.402Z,12.30
2018-12-19T08:37:37.281Z,9.50
2018-12-19T08:40:05.571Z,11.63
2018-12-19T08:42:33.468Z,19.43
2018-12-19T08:45:01.297Z,12.00
2018-12-19T08:47:29.103Z,8.63
2018-12-19T08:49:56.871Z,11.13
2018-12-19T08:52:24.666Z,12.13
2018-12-19T08:54:52.495Z,12.47
2018-12-19T08:57:20.260Z,8.23
2018-12-19T08:59:48.247Z,7.17
2018-12-19T09:02:16.058Z,8.10
2018-12-19T09:04:43.880Z,10.07
2018-12-19T09:07:11.637Z,11.63
2018-12-19T09:09:39.501Z,14.77
2018-12-19T09:12:07.297Z,8.47
2018-12-19T09:14:35.134Z,11.17
2018-12-19T09:17:03.389Z,13.13
2018-12-19T09:19:31.373Z,11.30
2018-12-19T09:21:59.326Z,9.00
2018-12-19T09:24:27.296Z,11.60
2018-12-19T09:26:55.072Z,16.03
2018-12-19T09:29:22.997Z,12.37
2018-12-19T09:31:50.772Z,8.87
2018-12-19T09:34:18.683Z,10.83
2018-12-19T09:36:46.494Z,9.50
2018-12-19T09:39:14.337Z,11.17
2018-12-19T09:41:42.132Z,8.07
2018-12-19T09:44:09.954Z,9.47
2018-12-19T09:46:37.724Z,8.53
2018-12-19T09:49:12.244Z,10.03
2018-12-19T09:51:35.538Z,11.00
2018-12-19T09:54:03.379Z,9.70
2018-12-19T09:56:31.270Z,9.30
2018-12-19T09:58:59.124Z,8.53
2018-12-19T10:01:27.045Z,10.13
2018-12-19T10:03:54.834Z,12.07
2018-12-19T10:06:22.744Z,14.87
2018-12-19T10:08:50.539Z,7.27
2018-12-19T10:11:18.793Z,10.83
2018-12-19T10:13:46.908Z,9.67
2018-12-19T10:16:15.098Z,9.40
2018-12-19T10:18:42.921Z,11.40
2018-12-19T10:21:10.846Z,9.50
2018-12-19T10:23:38.753Z,13.17
2018-12-19T10:26:13.592Z,12.53
2018-12-19T10:28:41.372Z,8.23
2018-12-19T10:31:09.261Z,10.73
2018-12-19T10:33:37.089Z,16.23
2018-12-19T10:36:05.032Z,10.87
2018-12-19T10:38:32.881Z,11.77
2018-12-19T10:41:00.842Z,7.17
2018-12-19T10:43:28.635Z,14.10
2018-12-19T10:45:56.454Z,9.53
2018-12-19T10:48:24.287Z,12.83
2018-12-19T10:50:53.099Z,8.40
2018-12-19T10:53:21.172Z,8.87
2018-12-19T10:55:48.964Z,9.37
2018-12-19T10:58:17.071Z,11.23
2018-12-19T11:00:50.430Z,8.50
2018-12-19T11:03:18.423Z,11.97
2018-12-19T11:05:46.177Z,12.63
2018-12-19T11:08:13.997Z,9.87
2018-12-19T11:10:41.800Z,8.97
2018-12-19T11:13:09.636Z,8.00
2018-12-19T11:15:37.510Z,7.60
2018-12-19T11:18:05.378Z,10.97
2018-12-19T11:20:33.223Z,9.07
2018-12-19T11:23:01.127Z,9.90
2018-12-19T11:25:28.916Z,7.83
2018-12-19T11:27:56.839Z,7.63
2018-12-19T11:30:24.641Z,8.03
2018-12-19T11:32:52.484Z,12.23
2018-12-19T11:35:20.340Z,5.40
2018-12-19T11:37:48.196Z,8.27
2018-12-19T11:40:16.000Z,12.57
2018-12-19T11:42:43.982Z,5.83
2018-12-19T11:45:11.803Z,6.50
2018-12-19T11:47:39.678Z,8.97
2018-12-19T11:50:08.095Z,9.10
2018-12-19T11:52:35.910Z,5.33
2018-12-19T11:55:04.133Z,7.70
2018-12-19T11:57:32.117Z,6.40
2018-12-19T12:00:00.039Z,5.03
2018-12-19T12:02:27.857Z,9.53
2018-12-19T12:04:55.731Z,6.43
2018-12-19T12:07:23.825Z,7.33
2018-12-19T12:09:51.666Z,4.57
2018-12-19T12:12:19.469Z,9.07
2018-12-19T12:14:47.346Z,3.40
2018-12-19T12:17:15.184Z,9.23
2018-12-19T12:19:43.047Z,8.27
2018-12-19T12:22:10.840Z,7.93
2018-12-19T12:24:38.690Z,10.40
2018-12-19T12:27:06.488Z,4.93
2018-12-19T12:29:34.319Z,8.27
2018-12-19T12:32:02.185Z,8.40
2018-12-19T12:34:30.025Z,7.97
2018-12-19T12:36:57.841Z,6.90
2018-12-19T12:39:25.662Z,11.60
2018-12-19T12:41:53.481Z,6.00
2018-12-19T12:44:21.356Z,5.23
2018-12-19T12:46:49.266Z,6.83
2018-12-19T12:49:17.241Z,7.03
2018-12-19T12:51:45.083Z,6.13
2018-12-19T12:54:12.980Z,8.90
2018-12-19T12:56:40.794Z,4.33
2018-12-19T12:59:08.730Z,5.50
2018-12-19T13:01:36.560Z,9.37
2018-12-19T13:04:04.422Z,8.20
2018-12-19T13:06:32.288Z,8.73
2018-12-19T13:09:00.212Z,7.90
2018-12-19T13:11:28.004Z,8.47
2018-12-19T13:13:55.940Z,5.83
2018-12-19T13:16:23.791Z,11.60
2018-12-19T13:18:51.782Z,6.13
2018-12-19T13:21:19.585Z,5.97
2018-12-19T13:23:47.558Z,5.60
2018-12-19T13:26:15.375Z,4.40
2018-12-19T13:28:43.211Z,3.70
2018-12-19T13:31:11.059Z,7.13
2018-12-19T13:33:38.990Z,3.77
2018-12-19T13:36:07.345Z,5.30
2018-12-19T13:38:36.419Z,4.40
2018-12-19T13:41:05.975Z,3.07
2018-12-19T13:43:33.859Z,5.00
2018-12-19T13:46:01.683Z,1.80
2018-12-19T13:48:29.529Z,5.10
2018-12-19T13:50:57.381Z,3.87
2018-12-19T13:53:25.519Z,5.70
2018-12-19T13:55:53.653Z,6.13
2018-12-19T13:58:21.684Z,8.33
2018-12-19T14:00:49.566Z,5.27
2018-12-19T14:03:17.380Z,9.77
2018-12-19T14:05:45.307Z,3.97
2018-12-19T14:08:13.145Z,3.73
2018-12-19T14:10:41.078Z,4.77
2018-12-19T14:13:08.939Z,6.37
2018-12-19T14:15:36.795Z,6.43
2018-12-19T14:18:04.744Z,3.20
2018-12-19T14:20:32.768Z,2.70
2018-12-19T14:23:00.558Z,3.23
2018-12-19T14:25:28.552Z,5.97
2018-12-19T14:27:56.594Z,6.43
2018-12-19T14:30:24.663Z,4.43
2018-12-19T14:32:52.560Z,7.33
2018-12-19T14:35:20.610Z,4.87
2018-12-19T14:37:48.465Z,6.33
2018-12-19T14:40:17.570Z,5.80
2018-12-19T14:42:45.845Z,5.03
2018-12-19T14:45:14.125Z,4.83
2018-12-19T14:47:42.018Z,5.80
2018-12-19T14:50:10.062Z,10.33
2018-12-19T14:52:38.893Z,5.13
2018-12-19T14:55:06.794Z,2.13
2018-12-19T14:57:35.001Z,7.80
2018-12-19T15:00:03.393Z,4.23
2018-12-19T15:02:31.387Z,5.20
2018-12-19T15:04:59.320Z,5.23
2018-12-19T15:07:27.211Z,7.20
2018-12-19T15:09:55.258Z,4.00
2018-12-19T15:12:25.947Z,6.03
2018-12-19T15:14:53.952Z,6.07
2018-12-19T15:17:21.855Z,7.13
2018-12-19T15:19:49.880Z,3.93
2018-12-19T15:22:17.769Z,2.13
2018-12-19T15:24:45.620Z,4.53
2018-12-19T15:27:13.544Z,7.87
2018-12-19T15:29:41.507Z,9.27
2018-12-19T15:32:09.703Z,7.03
2018-12-19T15:34:37.779Z,5.93
2018-12-19T15:37:06.055Z,6.33
2018-12-19T15:39:34.098Z,5.53
2018-12-19T15:42:02.384Z,7.27
2018-12-19T15:44:30.292Z,10.33
2018-12-19T15:46:58.526Z,8.87
2018-12-19T15:49:26.419Z,8.20
2018-12-19T15:51:54.505Z,6.43
2018-12-19T15:54:22.416Z,7.30
2018-12-19T15:56:50.623Z,8.03
2018-12-19T15:59:18.926Z,8.07
2018-12-19T16:01:46.969Z,7.27
2018-12-19T16:04:15.454Z,11.33
2018-12-19T16:06:43.550Z,7.57
2018-12-19T16:09:12.007Z,5.67
2018-12-19T16:11:40.096Z,8.78
2018-12-19T16:14:08.315Z,8.75
2018-12-19T16:16:36.339Z,7.70
2018-12-19T16:19:04.778Z,9.27
2018-12-19T16:21:32.742Z,13.35
2018-12-19T16:24:00.804Z,8.30
2018-12-19T16:26:28.666Z,5.97
2018-12-19T16:28:57.002Z,7.53
2018-12-19T16:31:24.818Z,8.20
2018-12-19T16:33:52.702Z,8.73
2018-12-19T16:36:20.801Z,8.37
2018-12-19T16:38:49.849Z,5.10
2018-12-19T16:41:17.933Z,5.70
2018-12-19T16:43:45.928Z,6.30
2018-12-19T16:46:13.746Z,4.93
2018-12-19T16:48:41.615Z,6.87
2018-12-19T16:52:12.471Z,8.23
2018-12-19T16:54:40.372Z,3.73
2018-12-19T16:57:08.568Z,5.10
2018-12-19T16:59:36.709Z,6.70
2018-12-19T17:02:05.211Z,5.70
2018-12-19T17:04:33.140Z,7.55
2018-12-19T17:07:01.000Z,10.53
2018-12-19T17:09:28.854Z,9.13
2018-12-19T17:11:58.712Z,8.43
2018-12-19T17:14:26.602Z,7.47
2018-12-19T17:16:56.045Z,6.23
2018-12-19T17:19:24.546Z,7.23
2018-12-19T17:21:52.911Z,8.30
2018-12-19T17:24:25.716Z,8.73
2018-12-19T17:26:54.285Z,5.57
2018-12-19T17:29:22.840Z,5.73
2018-12-19T17:31:51.092Z,9.07
2018-12-19T17:34:19.739Z,3.90
2018-12-19T17:36:48.125Z,7.30
2018-12-19T17:39:16.785Z,10.10
2018-12-19T17:41:46.079Z,6.60
2018-12-19T17:44:14.679Z,6.40
2018-12-19T17:46:43.137Z,6.50
2018-12-19T17:49:11.629Z,6.80
2018-12-19T17:51:39.980Z,9.87
2018-12-19T17:54:08.280Z,6.13
2018-12-19T17:56:36.721Z,6.73
2018-12-19T17:59:05.349Z,7.87
2018-12-19T18:01:34.043Z,7.60
2018-12-19T18:04:02.531Z,3.93
2018-12-19T18:06:30.841Z,8.83
2018-12-19T18:08:59.325Z,4.43
2018-12-19T18:11:27.964Z,9.30
2018-12-19T18:13:56.344Z,10.70
2018-12-19T18:16:24.486Z,9.47
2018-12-19T18:18:52.984Z,6.03
2018-12-19T18:21:21.656Z,7.70
2018-12-19T18:23:50.005Z,7.63
2018-12-19T18:26:18.272Z,6.50
2018-12-19T18:28:46.567Z,4.50
2018-12-19T18:31:15.018Z,4.43
2018-12-19T18:33:43.315Z,8.80
2018-12-19T18:36:11.936Z,8.33
2018-12-19T18:38:40.072Z,9.07
2018-12-19T18:41:08.583Z,10.17
2018-12-19T18:43:36.990Z,8.47
2018-12-19T18:46:05.462Z,14.10
2018-12-19T18:48:33.926Z,9.67
2018-12-19T18:51:02.320Z,7.07
2018-12-19T18:53:30.744Z,7.23
2018-12-19T18:55:59.583Z,8.50
2018-12-19T18:58:28.085Z,9.63
2018-12-19T19:00:56.407Z,11.00
2018-12-19T19:03:24.873Z,7.57
2018-12-19T19:05:53.296Z,14.03
2018-12-19T19:08:21.983Z,11.00
2018-12-19T19:10:50.641Z,10.07
2018-12-19T19:13:19.802Z,13.93
2018-12-19T19:15:48.350Z,11.83
2018-12-19T19:18:17.427Z,13.07
2018-12-19T19:20:45.710Z,12.03
2018-12-19T19:23:14.227Z,15.37
2018-12-19T19:25:42.680Z,13.53
2018-12-19T19:28:11.975Z,11.03
2018-12-19T19:30:40.365Z,10.30
2018-12-19T19:33:09.027Z,17.93
2018-12-19T19:35:37.515Z,15.43
2018-12-19T19:38:06.165Z,16.53
2018-12-19T19:40:34.657Z,17.00
2018-12-19T19:43:03.353Z,12.50
2018-12-19T19:45:32.062Z,16.33
2018-12-19T19:48:00.444Z,7.57
2018-12-19T19:50:29.401Z,14.87
2018-12-19T19:52:58.114Z,16.40
2018-12-19T19:55:26.485Z,16.23
2018-12-19T19:57:55.280Z,15.93
2018-12-19T20:00:31.834Z,20.27
2018-12-19T20:03:00.540Z,9.87
2018-12-19T20:05:29.084Z,16.83
2018-12-19T20:07:57.767Z,19.73
2018-12-19T20:10:26.657Z,17.33
2018-12-19T20:12:55.070Z,14.97
2018-12-19T20:15:23.572Z,17.97
2018-12-19T20:17:51.898Z,15.47
2018-12-19T20:20:20.383Z,16.37
2018-12-19T20:22:48.887Z,17.10
2018-12-19T20:25:18.585Z,19.27
2018-12-19T20:27:47.140Z,15.03
2018-12-19T20:30:15.874Z,15.37
2018-12-19T20:32:43.907Z,18.40
2018-12-19T20:35:11.937Z,18.80
2018-12-19T20:37:39.927Z,22.03
2018-12-19T20:40:08.062Z,16.50
2018-12-19T20:42:36.154Z,22.50
2018-12-19T20:45:04.248Z,18.90
2018-12-19T20:47:53.463Z,18.63
2018-12-19T20:50:21.907Z,20.10
2018-12-19T20:52:50.602Z,15.17
2018-12-19T20:55:19.269Z,19.07
2018-12-19T20:57:47.750Z,20.53
2018-12-19T21:00:16.346Z,14.77
2018-12-19T21:02:45.048Z,14.53
2018-12-19T21:05:13.635Z,15.37
2018-12-19T21:07:42.222Z,15.43
2018-12-19T21:10:10.514Z,14.27
2018-12-19T21:12:38.959Z,15.50
2018-12-19T21:15:07.699Z,16.33
2018-12-19T21:17:42.556Z,14.53
2018-12-19T21:20:11.042Z,14.70
2018-12-19T21:22:39.733Z,14.10
2018-12-19T21:25:08.207Z,14.67
2018-12-19T21:27:36.613Z,16.77
2018-12-19T21:30:05.532Z,16.47
2018-12-19T21:32:34.277Z,15.43
2018-12-19T21:35:02.751Z,12.50
2018-12-19T21:37:31.321Z,11.40
2018-12-19T21:39:59.717Z,11.27
2018-12-19T21:42:28.208Z,13.97
2018-12-19T21:44:56.739Z,14.07
2018-12-19T21:47:25.182Z,12.83
2018-12-19T21:49:53.072Z,12.53
2018-12-19T21:52:22.177Z,13.27
2018-12-19T21:54:51.327Z,13.37
2018-12-19T21:57:19.772Z,11.77
2018-12-19T21:59:51.312Z,7.43
2018-12-19T22:02:19.203Z,10.20
2018-12-19T22:04:47.073Z,12.73
2018-12-19T22:07:15.168Z,10.13
2018-12-19T22:09:45.452Z,9.07
2018-12-19T22:12:13.599Z,12.77
2018-12-19T22:14:43.599Z,13.93
2018-12-19T22:17:17.065Z,8.87
2018-12-19T22:19:46.265Z,12.60
2018-12-19T22:22:14.778Z,8.40
2018-12-19T22:24:43.111Z,11.20
2018-12-19T22:27:11.151Z,11.77
2018-12-19T22:29:40.180Z,12.13
2018-12-19T22:32:08.378Z,15.03
2018-12-19T22:34:37.583Z,10.70
2018-12-19T22:37:05.848Z,15.13
2018-12-19T22:39:33.746Z,14.70
2018-12-19T22:42:01.575Z,15.37
2018-12-19T22:44:29.570Z,19.77
2018-12-19T22:46:57.509Z,15.93
2018-12-19T22:49:25.587Z,14.17
2018-12-19T22:51:53.681Z,10.77
2018-12-19T22:54:21.811Z,10.03
2018-12-19T22:56:49.998Z,8.13
2018-12-19T22:59:17.891Z,12.47
2018-12-19T23:01:51.736Z,5.50
2018-12-19T23:04:20.161Z,3.43
2018-12-19T23:06:49.205Z,9.60
2018-12-19T23:09:17.191Z,3.83
2018-12-19T23:11:45.472Z,3.27
2018-12-19T23:14:15.467Z,1.93
2018-12-19T23:16:43.613Z,2.97
2018-12-19T23:19:11.429Z,2.87
2018-12-19T23:21:39.759Z,2.57
2018-12-19T23:24:08.027Z,1.80
2018-12-19T23:26:37.876Z,4.10
2018-12-19T23:29:05.985Z,5.93
2018-12-19T23:31:33.943Z,6.73
2018-12-19T23:34:01.920Z,9.50
2018-12-19T23:36:29.819Z,6.00
2018-12-19T23:38:58.093Z,6.20
2018-12-19T23:41:25.995Z,4.80
2018-12-19T23:43:53.796Z,6.97
2018-12-19T23:46:21.675Z,6.20
2018-12-19T23:48:49.512Z,11.63
2018-12-19T23:51:17.531Z,7.23
2018-12-19T23:53:45.498Z,9.07
2018-12-19T23:56:13.613Z,8.40
2018-12-19T23:58:41.807Z,8.97
